createdAt,value
2023-02-22T00:02:34.378Z,9.75
2023-02-22T00:07:35.981Z,9.64
2023-02-22T00:12:37.580Z,9.64
2023-02-22T00:17:39.286Z,9.63
2023-02-22T00:22:48.932Z,9.66
2023-02-22T00:27:52.850Z,9.53
2023-02-22T00:32:56.708Z,9.59
2023-02-22T00:38:00.780Z,9.54
2023-02-22T00:43:04.979Z,9.54
2023-02-22T00:48:08.610Z,9.30
2023-02-22T00:53:11.426Z,9.28
2023-02-22T00:58:13.141Z,9.31
2023-02-22T01:03:17.971Z,9.47
2023-02-22T01:08:20.082Z,9.28
2023-02-22T01:13:21.767Z,9.27
2023-02-22T01:18:23.499Z,9.22
2023-02-22T01:23:25.156Z,9.27
2023-02-22T01:28:26.837Z,9.28
2023-02-22T01:33:28.709Z,9.12
2023-02-22T01:38:30.352Z,9.25
2023-02-22T01:43:33.164Z,9.26
2023-02-22T01:48:51.157Z,9.15
2023-02-22T01:54:03.596Z,9.08
2023-02-22T01:59:10.721Z,9.08
2023-02-22T02:04:20.642Z,8.95
2023-02-22T02:09:40.582Z,8.94
2023-02-22T02:14:43.999Z,8.93
2023-02-22T02:20:13.950Z,8.90
2023-02-22T02:25:41.454Z,8.74
2023-02-22T02:31:06.450Z,8.86
2023-02-22T02:36:22.785Z,8.85
2023-02-22T02:41:29.940Z,8.60
2023-02-22T02:46:48.890Z,8.50
2023-02-22T02:51:54.008Z,8.39
2023-02-22T02:56:57.809Z,8.34
2023-02-22T03:02:13.247Z,8.44
2023-02-22T03:07:28.125Z,8.36
2023-02-22T03:12:54.524Z,8.17
2023-02-22T03:18:31.110Z,8.36
2023-02-22T03:23:37.706Z,8.50
2023-02-22T03:28:43.091Z,8.42
2023-02-22T03:33:51.878Z,8.26
2023-02-22T03:38:55.746Z,8.19
2023-02-22T03:44:09.476Z,8.42
2023-02-22T03:49:25.237Z,8.23
2023-02-22T03:54:28.989Z,8.05
2023-02-22T03:59:31.877Z,8.14
2023-02-22T04:04:34.740Z,8.15
2023-02-22T04:09:37.304Z,8.29
2023-02-22T04:14:39.300Z,7.96
2023-02-22T04:19:42.122Z,7.75
2023-02-22T04:24:44.007Z,7.99
2023-02-22T04:29:45.828Z,7.72
2023-02-22T04:34:48.060Z,7.70
2023-02-22T04:39:49.860Z,7.77
2023-02-22T04:44:52.500Z,7.55
2023-02-22T04:49:54.496Z,7.43
2023-02-22T04:54:56.181Z,7.51
2023-02-22T04:59:58.050Z,7.55
2023-02-22T05:05:00.260Z,7.75
2023-02-22T05:10:02.802Z,7.76
2023-02-22T05:15:07.179Z,7.65
2023-02-22T05:20:21.791Z,7.50
2023-02-22T05:25:24.392Z,7.61
2023-02-22T05:30:30.056Z,7.84
2023-02-22T05:35:32.270Z,7.84
2023-02-22T05:40:34.241Z,7.77
2023-02-22T05:45:36.285Z,7.57
2023-02-22T05:50:37.926Z,7.53
2023-02-22T05:55:40.285Z,7.66
2023-02-22T06:00:42.111Z,7.66
2023-02-22T06:05:43.885Z,7.57
2023-02-22T06:10:45.501Z,7.47
2023-02-22T06:15:47.184Z,7.49
2023-02-22T06:20:48.800Z,7.69
2023-02-22T06:25:50.484Z,7.60
2023-02-22T06:30:52.418Z,7.43
2023-02-22T06:35:54.034Z,7.48
2023-02-22T06:40:55.746Z,7.40
2023-02-22T06:45:57.389Z,7.44
2023-02-22T06:50:59.050Z,7.50
2023-02-22T06:56:00.970Z,7.50
2023-02-22T07:01:03.914Z,7.62
2023-02-22T07:06:07.692Z,7.69
2023-02-22T07:11:09.439Z,7.67
2023-02-22T07:16:11.112Z,7.72
2023-02-22T07:21:12.816Z,7.82
2023-02-22T07:26:14.450Z,7.96
2023-02-22T07:31:16.566Z,7.87
2023-02-22T07:36:18.389Z,7.95
2023-02-22T07:41:20.289Z,7.98
2023-02-22T07:46:21.970Z,8.19
2023-02-22T07:51:23.983Z,8.21
2023-02-22T07:56:25.790Z,8.86
2023-02-22T08:01:28.493Z,8.50
2023-02-22T08:06:30.168Z,9.23
2023-02-22T08:11:31.783Z,9.60
2023-02-22T08:16:33.517Z,9.84
2023-02-22T08:21:35.645Z,10.18
2023-02-22T08:26:37.490Z,10.11
2023-02-22T08:31:39.267Z,10.24
2023-02-22T08:36:42.641Z,10.63
2023-02-22T08:41:44.289Z,10.90
2023-02-22T08:46:45.931Z,11.18
2023-02-22T08:51:47.672Z,11.39
2023-02-22T08:56:49.690Z,11.29
2023-02-22T09:01:51.732Z,11.25
2023-02-22T09:06:53.361Z,11.65
2023-02-22T09:11:54.980Z,11.85
2023-02-22T09:16:56.690Z,12.50
2023-02-22T09:22:00.152Z,12.52
2023-02-22T09:27:04.390Z,12.62
2023-02-22T09:32:06.184Z,12.48
2023-02-22T09:37:08.860Z,11.89
2023-02-22T09:42:31.455Z,12.00
2023-02-22T09:47:41.781Z,11.67
2023-02-22T09:52:54.021Z,12.14
2023-02-22T09:57:59.738Z,12.35
2023-02-22T10:03:16.454Z,12.68
2023-02-22T10:08:19.893Z,12.75
2023-02-22T10:13:39.240Z,12.07
2023-02-22T10:18:56.375Z,12.84
2023-02-22T10:24:04.533Z,12.98
2023-02-22T10:29:06.078Z,12.60
2023-02-22T10:34:21.084Z,13.10
2023-02-22T10:39:35.205Z,13.01
2023-02-22T10:44:38.573Z,13.09
2023-02-22T10:49:44.042Z,13.50
2023-02-22T10:54:48.071Z,13.28
2023-02-22T10:59:52.071Z,13.18
2023-02-22T11:04:56.543Z,13.03
2023-02-22T11:10:00.873Z,13.36
2023-02-22T11:15:18.511Z,12.63
2023-02-22T11:20:25.416Z,12.85
2023-02-22T11:25:39.415Z,12.90
2023-02-22T11:30:44.023Z,12.32
2023-02-22T11:35:58.446Z,12.45
2023-02-22T11:41:26.114Z,12.79
2023-02-22T11:46:34.952Z,12.65
2023-02-22T11:52:10.730Z,12.75
2023-02-22T11:57:18.154Z,13.11
2023-02-22T12:02:30.552Z,13.32
2023-02-22T12:08:20.024Z,12.96
2023-02-22T12:13:38.256Z,13.18
2023-02-22T12:18:53.555Z,13.22
2023-02-22T12:24:14.454Z,12.83
2023-02-22T12:29:30.443Z,12.99
2023-02-22T12:34:41.530Z,12.79
2023-02-22T12:40:08.481Z,13.20
2023-02-22T12:45:31.872Z,13.40
2023-02-22T12:50:35.573Z,13.12
2023-02-22T12:55:50.911Z,13.29
2023-02-22T13:01:14.562Z,12.88
2023-02-22T13:06:27.275Z,13.06
2023-02-22T13:11:36.271Z,13.03
2023-02-22T13:16:42.394Z,13.57
2023-02-22T13:21:55.145Z,13.45
2023-02-22T13:27:02.073Z,13.04
2023-02-22T13:32:12.094Z,13.09
2023-02-22T13:37:47.132Z,12.84
2023-02-22T13:43:03.661Z,12.58
2023-02-22T13:48:24.724Z,12.94
2023-02-22T13:53:54.450Z,13.14
2023-02-22T13:58:59.413Z,13.06
2023-02-22T14:04:19.860Z,12.94
2023-02-22T14:09:45.558Z,12.67
2023-02-22T14:15:18.789Z,12.62
2023-02-22T14:20:36.279Z,12.89
2023-02-22T14:25:42.003Z,13.16
2023-02-22T14:30:43.792Z,13.02
2023-02-22T14:35:50.084Z,13.26
2023-02-22T14:40:53.738Z,13.12
2023-02-22T14:46:00.360Z,12.78
2023-02-22T14:51:20.281Z,13.13
2023-02-22T14:56:36.288Z,13.43
2023-02-22T15:01:53.179Z,13.45
2023-02-22T15:07:08.525Z,13.35
2023-02-22T15:12:18.317Z,13.19
2023-02-22T15:17:24.653Z,12.82
2023-02-22T15:22:35.949Z,12.63
2023-02-22T15:27:38.100Z,12.22
2023-02-22T15:32:53.248Z,12.00
2023-02-22T15:38:20.236Z,12.22
2023-02-22T15:43:24.802Z,11.96
2023-02-22T15:48:27.677Z,11.98
2023-02-22T15:53:37.379Z,11.63
2023-02-22T15:58:39.554Z,11.54
2023-02-22T16:03:57.583Z,11.16
2023-02-22T16:09:06.921Z,11.12
2023-02-22T16:14:31.221Z,10.83
2023-02-22T16:19:42.033Z,10.52
2023-02-22T16:24:44.689Z,10.29
2023-02-22T16:30:23.324Z,10.18
2023-02-22T16:35:28.901Z,9.79
2023-02-22T16:40:35.053Z,9.69
2023-02-22T16:45:36.663Z,9.53
2023-02-22T16:50:38.285Z,9.57
2023-02-22T16:55:44.785Z,9.45
2023-02-22T17:00:46.405Z,9.20
2023-02-22T17:05:48.067Z,8.94
2023-02-22T17:10:51.657Z,8.95
2023-02-22T17:15:55.006Z,8.67
2023-02-22T17:20:56.775Z,8.57
2023-02-22T17:26:02.242Z,8.36
2023-02-22T17:31:04.108Z,8.36
2023-02-22T17:36:06.324Z,8.32
2023-02-22T17:41:08.027Z,8.26
2023-02-22T17:46:09.748Z,8.03
2023-02-22T17:51:12.127Z,7.99
2023-02-22T17:56:18.568Z,8.00
2023-02-22T18:01:25.315Z,7.81
2023-02-22T18:06:29.998Z,7.68
2023-02-22T18:11:32.753Z,7.49
2023-02-22T18:16:34.942Z,7.60
2023-02-22T18:21:36.594Z,7.27
2023-02-22T18:26:39.097Z,7.50
2023-02-22T18:31:40.933Z,7.48
2023-02-22T18:36:42.607Z,7.27
2023-02-22T18:41:48.816Z,7.20
2023-02-22T18:46:50.506Z,7.01
2023-02-22T18:51:52.112Z,6.93
2023-02-22T18:56:53.772Z,6.95
2023-02-22T19:01:55.417Z,6.88
2023-02-22T19:06:57.690Z,6.66
2023-02-22T19:11:59.315Z,6.59
2023-02-22T19:17:02.830Z,6.59
2023-02-22T19:22:04.447Z,6.58
2023-02-22T19:27:06.481Z,6.57
2023-02-22T19:32:12.965Z,6.55
2023-02-22T19:37:15.357Z,6.20
2023-02-22T19:42:16.985Z,6.18
2023-02-22T19:47:18.595Z,6.24
2023-02-22T19:52:20.194Z,6.07
2023-02-22T19:57:23.723Z,6.05
2023-02-22T20:02:27.568Z,6.16
2023-02-22T20:07:29.306Z,5.94
2023-02-22T20:12:31.290Z,5.75
2023-02-22T20:17:32.999Z,5.43
2023-02-22T20:22:34.680Z,5.64
2023-02-22T20:27:36.428Z,5.49
2023-02-22T20:32:38.890Z,5.29
2023-02-22T20:37:42.640Z,5.46
2023-02-22T20:42:44.661Z,5.31
2023-02-22T20:47:46.305Z,5.33
2023-02-22T20:52:48.023Z,5.22
2023-02-22T20:57:49.681Z,5.45
2023-02-22T21:02:51.571Z,5.37
2023-02-22T21:07:53.918Z,5.14
2023-02-22T21:12:56.974Z,4.95
2023-02-22T21:18:00.399Z,5.19
2023-02-22T21:23:03.030Z,5.27
2023-02-22T21:28:05.550Z,5.05
2023-02-22T21:33:07.827Z,5.09
2023-02-22T21:38:14.445Z,5.03
2023-02-22T21:43:16.749Z,4.80
2023-02-22T21:48:18.397Z,4.73
2023-02-22T21:53:20.271Z,4.70
2023-02-22T21:58:22.572Z,4.53
2023-02-22T22:03:24.560Z,4.52
2023-02-22T22:08:28.034Z,4.51
2023-02-22T22:13:29.656Z,4.48
2023-02-22T22:18:31.246Z,4.63
2023-02-22T22:23:33.281Z,4.44
2023-02-22T22:28:34.891Z,4.47
2023-02-22T22:33:37.905Z,4.57
2023-02-22T22:38:39.576Z,4.40
2023-02-22T22:43:45.997Z,4.19
2023-02-22T22:48:47.716Z,4.37
2023-02-22T22:53:50.637Z,4.47
2023-02-22T22:58:55.409Z,4.25
2023-02-22T23:04:01.796Z,4.26
2023-02-22T23:09:24.506Z,4.21
2023-02-22T23:14:31.414Z,4.23
2023-02-22T23:19:35.403Z,4.14
2023-02-22T23:24:37.338Z,4.25
2023-02-22T23:29:41.346Z,4.14
2023-02-22T23:34:42.963Z,4.12
2023-02-22T23:39:44.628Z,4.02
2023-02-22T23:44:47.742Z,4.00
2023-02-22T23:49:50.053Z,4.01
2023-02-22T23:54:53.907Z,3.94
2023-02-22T23:59:55.596Z,3.86
